M I D A S
Marine Information and Data Acquisition System
Tripno 1005 of the Zeeleeuw from 2005-09-08 06:19:00 to 2005-09-08 12:46:35
Back to CruiseResearch ActivitiesStationsMapUnderway DataData graphs

EquipmentUnitsComments
TimeDGPSUTC
LatitudeDGPSDM.mWGS84
LongitudeDGPSDM.mWGS84
SpeedMeteo Stationm/sRelative wind speed
DirectionMeteo StationdegRelative wind direction
TemperatureMeteo Stationdeg CelciusAir temperature
PressureMeteo StationPaAtmospheric pressure
HumidityMeteo Station%Relative humidity
Missing or incorrect values are displayed as -999
Metereological data collected by the RV Zeeleeuw from 2005-09-08 06:14:50 to 2005-09-08 13:52:24
                                                                                    Next 1000 lines
Time Latitude Longitude Speed Direction Temperature Pressure Humidity
2005-09-08 06:15:00 51°13.597 2°56.09 1.2 53 16.1 101320 82
2005-09-08 06:15:05 51°13.597 2°56.09 1.4 53 16.1 101320 82
2005-09-08 06:15:10 51°13.597 2°56.089 1.3 51 16.1 101330 82
2005-09-08 06:15:15 51°13.597 2°56.089 1.3 52 16.1 101330 82
2005-09-08 06:15:20 51°13.597 2°56.089 1.2 51 16.1 101330 82
2005-09-08 06:15:25 51°13.596 2°56.089 1 51 16.1 101330 82
2005-09-08 06:15:30 51°13.596 2°56.09 1 51 16.1 101330 82
2005-09-08 06:15:36 51°13.594 2°56.091 1.3 37 16.1 101330 82
2005-09-08 06:15:40 51°13.593 2°56.093 2.6 39 16.1 101330 82
2005-09-08 06:15:45 51°13.592 2°56.095 2 44 16.1 101330 82
2005-09-08 06:15:50 51°13.59 2°56.098 2.8 31 16.1 101330 82
2005-09-08 06:15:54 51°13.588 2°56.1 2.6 26 16.1 101330 82
2005-09-08 06:16:01 51°13.585 2°56.105 2.6 31 16.1 101330 82
2005-09-08 06:16:06 51°13.583 2°56.108 2.3 33 16.1 101330 82
2005-09-08 06:16:10 51°13.581 2°56.112 2.6 44 16.1 101330 82
2005-09-08 06:16:15 51°13.578 2°56.117 2.8 25 16.1 101330 82
2005-09-08 06:16:20 51°13.576 2°56.122 2.3 23 16.1 101330 82
2005-09-08 06:16:25 51°13.574 2°56.127 1.8 45 16.1 101330 82
2005-09-08 06:16:30 51°13.571 2°56.132 1.6 43 16.2 101330 82
2005-09-08 06:16:36 51°13.569 2°56.137 1.6 32 16.2 101330 82
2005-09-08 06:16:40 51°13.567 2°56.142 1.4 32 16.2 101320 82
2005-09-08 06:16:46 51°13.565 2°56.147 1.8 35 16.2 101320 82
2005-09-08 06:16:50 51°13.563 2°56.152 2.2 39 16.2 101330 82
2005-09-08 06:16:56 51°13.56 2°56.159 2.6 36 16.2 101330 82
2005-09-08 06:17:00 51°13.557 2°56.164 3.1 23 16.2 101330 82
2005-09-08 06:17:05 51°13.554 2°56.169 2.6 37 16.2 101330 82
2005-09-08 06:17:10 51°13.551 2°56.174 2.4 38 16.2 101330 82
2005-09-08 06:17:15 51°13.547 2°56.178 2.4 26 16.2 101330 82
2005-09-08 06:17:20 51°13.543 2°56.181 2.4 25 16.2 101330 82
2005-09-08 06:17:25 51°13.54 2°56.184 2.5 28 16.2 101330 82
2005-09-08 06:17:30 51°13.537 2°56.186 1.8 21 16.2 101330 81
2005-09-08 06:17:35 51°13.535 2°56.188 1.4 24 16.2 101330 81
2005-09-08 06:17:41 51°13.533 2°56.189 1.2 3 16.2 101330 81
2005-09-08 06:17:45 51°13.533 2°56.189 0.9 20 16.2 101330 81
2005-09-08 06:17:50 51°13.533 2°56.189 0.7 20 16.2 101330 81
2005-09-08 06:17:55 51°13.534 2°56.189 0.5 21 16.2 101330 81
2005-09-08 06:18:00 51°13.536 2°56.189 0.4 61 16.2 101330 81
2005-09-08 06:18:05 51°13.539 2°56.189 0.4 122 16.2 101330 81
2005-09-08 06:18:10 51°13.541 2°56.188 0.3 123 16.2 101330 81
2005-09-08 06:18:16 51°13.543 2°56.188 0.2 124 16.2 101330 81
2005-09-08 06:18:20 51°13.544 2°56.188 0.6 94 16.2 101330 81
2005-09-08 06:18:26 51°13.544 2°56.188 1.4 19 16.2 101330 81
2005-09-08 06:18:31 51°13.543 2°56.188 1.7 25 16.2 101330 81
2005-09-08 06:18:36 51°13.541 2°56.187 2.7 25 16.2 101330 81
2005-09-08 06:18:40 51°13.539 2°56.187 2.3 18 16.2 101330 81
2005-09-08 06:18:46 51°13.537 2°56.185 2.7 24 16.2 101330 81
2005-09-08 06:18:50 51°13.536 2°56.184 2.3 11 16.2 101330 81
2005-09-08 06:18:56 51°13.534 2°56.184 2.2 5 16.2 101330 81
2005-09-08 06:19:00 51°13.534 2°56.183 1.6 348 16.3 101330 81
2005-09-08 06:19:06 51°13.533 2°56.184 1 333 16.3 101330 81
2005-09-08 06:19:10 51°13.534 2°56.184 0.8 335 16.3 101330 81
2005-09-08 06:19:15 51°13.535 2°56.185 0.8 333 16.3 101330 81
2005-09-08 06:19:20 51°13.536 2°56.186 0.8 336 16.3 101330 81
2005-09-08 06:19:26 51°13.537 2°56.188 0.4 334 16.3 101330 81
2005-09-08 06:19:30 51°13.538 2°56.19 0.3 342 16.3 101330 81
2005-09-08 06:19:36 51°13.54 2°56.192 0.4 349 16.3 101330 81
2005-09-08 06:19:41 51°13.542 2°56.195 0.3 348 16.3 101340 81
2005-09-08 06:19:46 51°13.544 2°56.197 0.7 333 16.3 101340 81
2005-09-08 06:19:51 51°13.546 2°56.199 0.6 332 16.3 101340 81
2005-09-08 06:19:56 51°13.548 2°56.201 1.2 25 16.3 101340 81
2005-09-08 06:20:00 51°13.548 2°56.201 1.3 2 16.3 101340 81
2005-09-08 06:20:06 51°13.548 2°56.2 1.2 338 16.3 101340 81
2005-09-08 06:20:11 51°13.548 2°56.199 1.7 8 16.3 101340 81
2005-09-08 06:20:16 51°13.548 2°56.197 2.2 340 16.3 101340 81
2005-09-08 06:20:21 51°13.547 2°56.195 2.7 331 16.4 101340 81
2005-09-08 06:20:26 51°13.546 2°56.192 1.9 327 16.4 101340 81
2005-09-08 06:20:30 51°13.545 2°56.188 1.5 333 16.4 101340 81
2005-09-08 06:20:36 51°13.544 2°56.181 2.2 337 16.4 101340 81
2005-09-08 06:20:40 51°13.544 2°56.176 1.8 348 16.4 101340 81
2005-09-08 06:20:45 51°13.544 2°56.169 2 351 16.4 101340 81
2005-09-08 06:20:50 51°13.544 2°56.162 2 344 16.4 101340 81
2005-09-08 06:20:55 51°13.546 2°56.153 2 357 16.4 101340 81
2005-09-08 06:21:01 51°13.548 2°56.143 2.7 329 16.4 101340 80
2005-09-08 06:21:06 51°13.552 2°56.134 2.6 342 16.4 101340 80
2005-09-08 06:21:10 51°13.555 2°56.126 3.2 349 16.4 101340 80
2005-09-08 06:21:15 51°13.56 2°56.115 3.6 346 16.4 101340 80
2005-09-08 06:21:20 51°13.564 2°56.103 3.5 331 16.4 101340 80
2005-09-08 06:21:24 51°13.568 2°56.094 4.3 335 16.4 101340 80
2005-09-08 06:21:30 51°13.574 2°56.08 3.7 352 16.4 101340 80
2005-09-08 06:21:35 51°13.58 2°56.066 4.5 349 16.4 101340 80
2005-09-08 06:21:40 51°13.586 2°56.053 4.4 335 16.5 101340 80
2005-09-08 06:21:46 51°13.592 2°56.037 4.4 353 16.5 101340 80
2005-09-08 06:21:50 51°13.597 2°56.026 4.2 347 16.4 101340 80
2005-09-08 06:21:56 51°13.605 2°56.009 4.1 360 16.4 101340 80
2005-09-08 06:22:00 51°13.61 2°55.995 3.8 351 16.5 101340 80
2005-09-08 06:22:05 51°13.616 2°55.98 4.6 356 16.5 101340 80
2005-09-08 06:22:10 51°13.623 2°55.964 4.9 348 16.5 101340 80
2005-09-08 06:22:15 51°13.629 2°55.949 4.6 354 16.5 101340 80
2005-09-08 06:22:20 51°13.635 2°55.934 4.1 345 16.5 101340 80
2005-09-08 06:22:25 51°13.641 2°55.921 3.5 3 16.5 101340 80
2005-09-08 06:22:30 51°13.647 2°55.906 4.3 2 16.5 101340 80
2005-09-08 06:22:36 51°13.655 2°55.888 4.1 359 16.5 101340 80
2005-09-08 06:22:40 51°13.661 2°55.875 4.3 346 16.5 101340 80
2005-09-08 06:22:44 51°13.666 2°55.863 3.1 341 16.5 101340 80
2005-09-08 06:22:50 51°13.673 2°55.848 3.1 343 16.5 101340 80
2005-09-08 06:22:55 51°13.68 2°55.832 3.6 341 16.5 101340 80
2005-09-08 06:23:00 51°13.687 2°55.818 3.9 342 16.5 101340 80
2005-09-08 06:23:05 51°13.693 2°55.805 4 348 16.5 101340 80
2005-09-08 06:23:10 51°13.7 2°55.791 3.6 344 16.5 101340 80
2005-09-08 06:23:15 51°13.708 2°55.777 3.7 336 16.5 101340 80
2005-09-08 06:23:20 51°13.715 2°55.764 3.8 337 16.5 101340 80
2005-09-08 06:23:25 51°13.723 2°55.751 3.1 336 16.5 101340 80
2005-09-08 06:23:30 51°13.73 2°55.74 3.4 351 16.5 101330 80
2005-09-08 06:23:35 51°13.739 2°55.727 4 332 16.5 101330 80
2005-09-08 06:23:40 51°13.748 2°55.715 3.6 329 16.5 101340 80
2005-09-08 06:23:46 51°13.757 2°55.703 3.5 348 16.5 101340 80
2005-09-08 06:23:50 51°13.765 2°55.693 3.7 343 16.5 101340 80
2005-09-08 06:23:55 51°13.774 2°55.683 3.4 331 16.5 101340 80
2005-09-08 06:24:00 51°13.783 2°55.673 2.9 323 16.5 101330 80
2005-09-08 06:24:05 51°13.792 2°55.664 3.1 339 16.5 101330 80
2005-09-08 06:24:10 51°13.802 2°55.654 3.4 339 16.5 101340 80
2005-09-08 06:24:15 51°13.812 2°55.646 2.6 326 16.5 101340 80
2005-09-08 06:24:20 51°13.822 2°55.637 3.2 347 16.6 101330 80
2005-09-08 06:24:25 51°13.831 2°55.629 3 340 16.6 101330 80
2005-09-08 06:24:30 51°13.842 2°55.621 2.4 321 16.6 101340 80
2005-09-08 06:24:36 51°13.855 2°55.611 3 3 16.6 101340 80
2005-09-08 06:24:40 51°13.864 2°55.604 3.3 5 16.6 101340 80
2005-09-08 06:24:44 51°13.873 2°55.597 3.1 7 16.6 101340 80
2005-09-08 06:24:50 51°13.886 2°55.587 3.2 344 16.6 101340 80
2005-09-08 06:24:55 51°13.897 2°55.579 3.3 348 16.6 101340 80
2005-09-08 06:25:00 51°13.908 2°55.571 3.4 5 16.6 101340 80
2005-09-08 06:25:05 51°13.918 2°55.563 2.1 353 16.6 101340 80
2005-09-08 06:25:10 51°13.929 2°55.556 2.7 356 16.6 101340 79
2005-09-08 06:25:15 51°13.942 2°55.547 3.3 354 16.6 101340 79
2005-09-08 06:25:21 51°13.954 2°55.537 2.6 333 16.7 101340 79
2005-09-08 06:25:26 51°13.966 2°55.529 4.1 342 16.7 101340 79
2005-09-08 06:25:30 51°13.977 2°55.52 3.4 349 16.7 101340 79
2005-09-08 06:25:35 51°13.989 2°55.511 2.9 353 16.7 101340 79
2005-09-08 06:25:40 51°14 2°55.503 3.3 349 16.7 101340 79
2005-09-08 06:25:44 51°14.009 2°55.496 2.9 331 16.7 101340 79
2005-09-08 06:25:50 51°14.022 2°55.488 2.5 354 16.7 101340 79
2005-09-08 06:25:55 51°14.034 2°55.48 3.5 338 16.7 101340 79
2005-09-08 06:26:00 51°14.045 2°55.473 3.4 337 16.7 101340 79
2005-09-08 06:26:05 51°14.055 2°55.466 3.3 343 16.7 101340 79
2005-09-08 06:26:10 51°14.066 2°55.459 3.8 338 16.8 101340 79
2005-09-08 06:26:15 51°14.078 2°55.45 2.4 338 16.8 101340 79
2005-09-08 06:26:20 51°14.09 2°55.443 3.4 335 16.8 101340 79
2005-09-08 06:26:24 51°14.099 2°55.436 3.6 344 16.8 101340 79
2005-09-08 06:26:30 51°14.112 2°55.426 3.7 343 16.8 101340 79
2005-09-08 06:26:36 51°14.125 2°55.416 3 342 16.8 101340 79
2005-09-08 06:26:40 51°14.135 2°55.408 3.4 346 16.8 101340 78
2005-09-08 06:26:44 51°14.144 2°55.4 4.3 330 16.8 101340 78
2005-09-08 06:26:50 51°14.156 2°55.389 3.7 324 16.9 101340 78
2005-09-08 06:26:55 51°14.168 2°55.376 3.3 331 16.9 101340 78
2005-09-08 06:27:00 51°14.179 2°55.364 3.5 337 16.9 101340 78
2005-09-08 06:27:05 51°14.188 2°55.353 4.4 348 16.9 101340 78
2005-09-08 06:27:10 51°14.199 2°55.34 3.6 346 16.9 101340 78
2005-09-08 06:27:15 51°14.209 2°55.324 4 331 16.9 101340 78
2005-09-08 06:27:20 51°14.219 2°55.31 4.1 334 16.9 101340 78
2005-09-08 06:27:24 51°14.226 2°55.297 4 337 16.9 101340 78
2005-09-08 06:27:30 51°14.236 2°55.28 4.5 341 16.9 101340 78
2005-09-08 06:27:35 51°14.245 2°55.262 5.6 329 16.9 101340 78
2005-09-08 06:27:40 51°14.253 2°55.246 4.3 337 16.9 101340 77
2005-09-08 06:27:44 51°14.26 2°55.232 4.9 331 16.9 101340 77
2005-09-08 06:27:50 51°14.27 2°55.211 5.1 316 17 101340 77
2005-09-08 06:27:55 51°14.278 2°55.194 4.4 228 17 101340 77
2005-09-08 06:28:00 51°14.287 2°55.176 4.6 329 17 101330 77
2005-09-08 06:28:06 51°14.296 2°55.156 5.5 343 17 101330 77
2005-09-08 06:28:10 51°14.303 2°55.142 4.6 349 17 101330 77
2005-09-08 06:28:15 51°14.312 2°55.122 5.2 333 17 101330 77
2005-09-08 06:28:20 51°14.32 2°55.103 5 324 17 101330 77
2005-09-08 06:28:26 51°14.33 2°55.083 5.4 -999 17 101330 77
2005-09-08 06:28:30 51°14.337 2°55.068 5.3 354 17.1 101330 77
2005-09-08 06:28:34 51°14.345 2°55.051 5.3 320 17.1 101330 77
2005-09-08 06:28:40 51°14.356 2°55.029 5.3 335 17.1 101340 77
2005-09-08 06:28:44 51°14.363 2°55.014 6.1 325 17.1 101340 77
2005-09-08 06:28:50 51°14.373 2°54.994 5.3 324 17.1 101330 78
2005-09-08 06:28:54 51°14.381 2°54.979 5.8 315 17.1 101330 78
2005-09-08 06:29:00 51°14.394 2°54.955 6.2 315 17.2 101330 77
2005-09-08 06:29:06 51°14.406 2°54.935 5.3 321 17.2 101330 77
2005-09-08 06:29:10 51°14.416 2°54.921 5.7 326 17.2 101330 77
2005-09-08 06:29:16 51°14.43 2°54.9 5.4 326 17.2 101330 77
2005-09-08 06:29:20 51°14.442 2°54.885 5.8 323 17.2 101330 77
2005-09-08 06:29:24 51°14.453 2°54.872 5.5 324 17.2 101330 77
2005-09-08 06:29:30 51°14.468 2°54.854 5.3 323 17.2 101330 77
2005-09-08 06:29:36 51°14.485 2°54.835 5.5 325 17.2 101330 77
2005-09-08 06:29:40 51°14.498 2°54.82 5.9 321 17.2 101330 77
2005-09-08 06:29:44 51°14.509 2°54.807 5.7 322 17.2 101330 77
2005-09-08 06:29:50 51°14.527 2°54.788 5.1 318 17.3 101330 77
2005-09-08 06:29:55 51°14.542 2°54.772 5.3 321 17.3 101330 77
2005-09-08 06:30:00 51°14.557 2°54.756 5.3 324 17.3 101330 77
2005-09-08 06:30:06 51°14.574 2°54.739 5.3 318 17.3 101330 77
2005-09-08 06:30:10 51°14.586 2°54.728 4.9 319 17.3 101330 76
2005-09-08 06:30:16 51°14.605 2°54.71 4.6 318 17.3 101330 76
2005-09-08 06:30:20 51°14.619 2°54.698 4.5 43 17.4 101330 77
2005-09-08 06:30:26 51°14.636 2°54.682 5.5 324 17.4 101330 77
2005-09-08 06:30:30 51°14.649 2°54.671 5.1 318 17.4 101330 77
2005-09-08 06:30:35 51°14.667 2°54.657 5.3 319 17.4 101330 77
2005-09-08 06:30:40 51°14.683 2°54.644 5 317 17.4 101330 76
2005-09-08 06:30:46 51°14.701 2°54.629 4.9 320 17.4 101330 76
2005-09-08 06:30:50 51°14.715 2°54.617 4.6 319 17.4 101330 76
2005-09-08 06:30:55 51°14.731 2°54.603 4.8 317 17.4 101330 76
2005-09-08 06:31:00 51°14.747 2°54.589 4.2 228 17.4 101330 76
2005-09-08 06:31:05 51°14.762 2°54.576 4.2 43 17.4 101330 76
2005-09-08 06:31:10 51°14.779 2°54.561 4.9 319 17.4 101340 76
2005-09-08 06:31:15 51°14.795 2°54.547 4.9 323 17.4 101340 76
2005-09-08 06:31:20 51°14.811 2°54.534 4.5 317 17.4 101330 76
2005-09-08 06:31:26 51°14.829 2°54.518 4.6 326 17.4 101330 76
2005-09-08 06:31:30 51°14.844 2°54.506 4.9 319 17.4 101330 76
2005-09-08 06:31:36 51°14.862 2°54.491 4.7 317 17.4 101330 76
2005-09-08 06:31:40 51°14.876 2°54.479 4.8 318 17.4 101330 77
2005-09-08 06:31:46 51°14.894 2°54.464 4.9 319 17.4 101330 77
2005-09-08 06:31:50 51°14.907 2°54.453 4.6 320 17.4 101340 77
2005-09-08 06:31:56 51°14.927 2°54.438 4.4 317 17.4 101340 77
2005-09-08 06:32:00 51°14.941 2°54.426 4.6 318 17.4 101330 77
2005-09-08 06:32:05 51°14.956 2°54.414 4.6 319 17.4 101330 77
2005-09-08 06:32:10 51°14.973 2°54.399 4.8 318 17.4 101330 77
2005-09-08 06:32:15 51°14.989 2°54.385 4.4 317 17.4 101330 77
2005-09-08 06:32:21 51°15.007 2°54.369 4.9 319 17.4 101330 77
2005-09-08 06:32:26 51°15.023 2°54.356 4.6 317 17.4 101330 77
2005-09-08 06:32:30 51°15.037 2°54.342 5.1 321 17.4 101330 77
2005-09-08 06:32:35 51°15.053 2°54.328 5.2 320 17.4 101330 77
2005-09-08 06:32:40 51°15.069 2°54.314 5.1 320 17.4 101330 77
2005-09-08 06:32:46 51°15.087 2°54.298 5 316 17.4 101330 77
2005-09-08 06:32:50 51°15.1 2°54.287 5.4 320 17.4 101340 77
2005-09-08 06:32:55 51°15.117 2°54.271 5.1 318 17.4 101340 77
2005-09-08 06:33:00 51°15.134 2°54.258 4.8 318 17.4 101330 78
2005-09-08 06:33:05 51°15.149 2°54.246 4.7 42 17.4 101330 78
2005-09-08 06:33:10 51°15.166 2°54.233 4.7 326 17.4 101330 78
2005-09-08 06:33:15 51°15.184 2°54.219 4.8 318 17.4 101330 78
2005-09-08 06:33:20 51°15.201 2°54.205 4.6 323 17.4 101340 78
2005-09-08 06:33:24 51°15.215 2°54.194 5.1 324 17.4 101340 78
2005-09-08 06:33:30 51°15.235 2°54.177 5 321 17.4 101330 78
2005-09-08 06:33:36 51°15.253 2°54.161 5.2 324 17.4 101330 78
2005-09-08 06:33:40 51°15.267 2°54.147 5.5 322 17.4 101340 78
2005-09-08 06:33:44 51°15.28 2°54.134 5.4 322 17.4 101340 78
2005-09-08 06:33:50 51°15.298 2°54.117 5.7 318 17.4 101340 78
2005-09-08 06:33:55 51°15.315 2°54.099 4.9 321 17.4 101340 78
2005-09-08 06:34:00 51°15.331 2°54.083 5 320 17.5 101330 78
2005-09-08 06:34:06 51°15.349 2°54.066 4.9 323 17.5 101330 78
2005-09-08 06:34:10 51°15.363 2°54.051 5 324 17.5 101330 78
2005-09-08 06:34:15 51°15.379 2°54.036 5.3 321 17.5 101330 78
2005-09-08 06:34:20 51°15.396 2°54.021 5.1 326 17.4 101330 78
2005-09-08 06:34:26 51°15.414 2°54.005 5.2 320 17.4 101330 78
2005-09-08 06:34:30 51°15.429 2°53.992 5.2 318 17.5 101340 78
2005-09-08 06:34:35 51°15.445 2°53.978 4.6 318 17.5 101340 78
2005-09-08 06:34:40 51°15.461 2°53.963 4.9 327 17.5 101330 78
2005-09-08 06:34:45 51°15.476 2°53.949 5 325 17.5 101330 78
2005-09-08 06:34:50 51°15.492 2°53.935 5.1 325 17.5 101330 78
2005-09-08 06:34:55 51°15.51 2°53.919 5.5 322 17.5 101330 78
2005-09-08 06:35:00 51°15.526 2°53.904 5.8 322 17.4 101330 78
2005-09-08 06:35:05 51°15.542 2°53.888 5.3 315 17.4 101330 78
2005-09-08 06:35:10 51°15.556 2°53.874 4.8 320 17.5 101330 79
2005-09-08 06:35:15 51°15.574 2°53.857 5.1 319 17.5 101330 79
2005-09-08 06:35:20 51°15.59 2°53.843 4.9 317 17.5 101330 79
2005-09-08 06:35:24 51°15.603 2°53.831 5 319 17.5 101330 79
2005-09-08 06:35:30 51°15.621 2°53.816 4.9 316 17.5 101330 79
2005-09-08 06:35:36 51°15.641 2°53.799 5.1 317 17.5 101330 79
2005-09-08 06:35:40 51°15.655 2°53.787 4.8 43 17.5 101330 79
2005-09-08 06:35:45 51°15.672 2°53.773 5.1 316 17.5 101330 79
2005-09-08 06:35:50 51°15.687 2°53.76 5.1 43 17.5 101340 79
2005-09-08 06:35:55 51°15.704 2°53.745 4.8 317 17.5 101340 79
2005-09-08 06:36:00 51°15.721 2°53.73 5.1 321 17.4 101330 79
2005-09-08 06:36:04 51°15.734 2°53.719 5.9 227 17.4 101330 79
2005-09-08 06:36:10 51°15.752 2°53.703 5.2 314 17.5 101330 79
2005-09-08 06:36:16 51°15.771 2°53.687 5.2 319 17.5 101330 79
2005-09-08 06:36:20 51°15.786 2°53.674 4.8 320 17.5 101340 79
2005-09-08 06:36:25 51°15.802 2°53.66 4.7 317 17.5 101340 79
2005-09-08 06:36:30 51°15.817 2°53.648 4.7 317 17.5 101330 79
2005-09-08 06:36:36 51°15.836 2°53.631 4.9 317 17.5 101330 79
2005-09-08 06:36:40 51°15.851 2°53.618 5 318 17.5 101330 79
2005-09-08 06:36:44 51°15.864 2°53.606 5 39 17.5 101330 79
2005-09-08 06:36:50 51°15.882 2°53.59 5.3 324 17.5 101330 78
2005-09-08 06:36:56 51°15.901 2°53.573 5.3 317 17.5 101330 78
2005-09-08 06:37:00 51°15.916 2°53.561 4.9 318 17.5 101330 78
2005-09-08 06:37:06 51°15.934 2°53.545 5.9 314 17.5 101330 78
2005-09-08 06:37:10 51°15.947 2°53.534 5.3 319 17.5 101330 79
2005-09-08 06:37:16 51°15.967 2°53.518 5 318 17.5 101330 79
2005-09-08 06:37:20 51°15.982 2°53.506 5.1 42 17.5 101330 79
2005-09-08 06:37:26 51°16 2°53.491 5.7 229 17.5 101330 79
2005-09-08 06:37:30 51°16.013 2°53.479 4.7 227 17.5 101330 79
2005-09-08 06:37:35 51°16.031 2°53.463 4.5 317 17.5 101330 79
2005-09-08 06:37:40 51°16.047 2°53.449 5.2 41 17.5 101330 79
2005-09-08 06:37:45 51°16.062 2°53.436 5.1 316 17.5 101330 79
2005-09-08 06:37:50 51°16.079 2°53.422 4.7 322 17.5 101330 79
2005-09-08 06:37:55 51°16.097 2°53.407 5.1 313 17.5 101330 79
2005-09-08 06:38:00 51°16.114 2°53.394 5.2 314 17.5 101330 79
2005-09-08 06:38:05 51°16.131 2°53.38 4.9 313 17.5 101330 79
2005-09-08 06:38:10 51°16.148 2°53.366 4.5 315 17.5 101330 79
2005-09-08 06:38:16 51°16.166 2°53.351 5 317 17.5 101330 79
2005-09-08 06:38:20 51°16.181 2°53.338 5.3 228 17.5 101330 80
2005-09-08 06:38:24 51°16.194 2°53.327 4.8 227 17.5 101330 80
2005-09-08 06:38:30 51°16.213 2°53.311 5 43 17.5 101330 79
2005-09-08 06:38:35 51°16.231 2°53.296 4.5 42 17.5 101330 79
2005-09-08 06:38:40 51°16.247 2°53.281 4.6 320 17.5 101330 79
2005-09-08 06:38:44 51°16.26 2°53.27 4.4 318 17.5 101330 79
2005-09-08 06:38:50 51°16.279 2°53.254 4.5 318 17.5 101330 79
2005-09-08 06:38:55 51°16.297 2°53.238 4.8 43 17.5 101330 79
2005-09-08 06:39:00 51°16.314 2°53.225 4.6 320 17.5 101330 79
2005-09-08 06:39:06 51°16.333 2°53.209 4.6 321 17.5 101330 79
2005-09-08 06:39:10 51°16.346 2°53.198 4.6 316 17.6 101330 80
2005-09-08 06:39:16 51°16.366 2°53.182 4.4 316 17.6 101330 80
2005-09-08 06:39:20 51°16.381 2°53.169 4.6 41 17.6 101340 80
2005-09-08 06:39:26 51°16.4 2°53.154 4.5 228 17.6 101340 80
2005-09-08 06:39:30 51°16.414 2°53.143 4.3 320 17.6 101340 80
2005-09-08 06:39:36 51°16.434 2°53.126 5 315 17.6 101340 80
2005-09-08 06:39:40 51°16.449 2°53.114 4.9 314 17.6 101330 80
2005-09-08 06:39:45 51°16.466 2°53.1 4.6 227 17.6 101330 80
2005-09-08 06:39:50 51°16.481 2°53.087 4.4 316 17.5 101330 80
2005-09-08 06:39:55 51°16.5 2°53.072 4.5 319 17.5 101330 80
2005-09-08 06:40:00 51°16.517 2°53.058 4.2 317 17.6 101340 80
2005-09-08 06:40:04 51°16.53 2°53.047 4.4 319 17.6 101340 80
2005-09-08 06:40:10 51°16.548 2°53.031 4.8 319 17.6 101330 79
2005-09-08 06:40:15 51°16.567 2°53.016 4.3 316 17.6 101330 79
2005-09-08 06:40:20 51°16.584 2°53.002 5.1 317 17.6 101340 79
2005-09-08 06:40:25 51°16.599 2°52.989 4.5 43 17.6 101340 79
2005-09-08 06:40:31 51°16.619 2°52.972 4.9 229 17.6 101340 79
2005-09-08 06:40:36 51°16.636 2°52.958 4.7 314 17.6 101340 79
2005-09-08 06:40:40 51°16.65 2°52.945 4.7 320 17.6 101340 80
2005-09-08 06:40:44 51°16.664 2°52.934 4.2 43 17.6 101340 80
2005-09-08 06:40:50 51°16.682 2°52.918 4.6 43 17.6 101330 80
2005-09-08 06:40:55 51°16.7 2°52.902 4.1 322 17.6 101330 80
2005-09-08 06:41:01 51°16.719 2°52.887 4.6 316 17.6 101340 80
2005-09-08 06:41:06 51°16.735 2°52.873 4.6 316 17.6 101340 80
2005-09-08 06:41:10 51°16.749 2°52.862 4.6 228 17.6 101340 80
2005-09-08 06:41:15 51°16.767 2°52.846 5 43 17.6 101340 80
2005-09-08 06:41:20 51°16.783 2°52.832 4.8 313 17.6 101340 80
2005-09-08 06:41:25 51°16.798 2°52.819 4.6 313 17.6 101340 80
2005-09-08 06:41:30 51°16.815 2°52.806 4.8 42 17.6 101340 80
2005-09-08 06:41:35 51°16.833 2°52.791 4.8 315 17.6 101340 80
2005-09-08 06:41:40 51°16.85 2°52.778 4.3 314 17.6 101340 80
2005-09-08 06:41:45 51°16.865 2°52.766 5.3 41 17.6 101340 80
2005-09-08 06:41:50 51°16.881 2°52.753 4.8 314 17.6 101340 80
2005-09-08 06:41:55 51°16.899 2°52.738 4.5 42 17.6 101340 80
2005-09-08 06:42:00 51°16.916 2°52.724 4.3 41 17.6 101340 80
2005-09-08 06:42:05 51°16.931 2°52.712 4.8 41 17.6 101340 80
2005-09-08 06:42:10 51°16.95 2°52.696 4.5 227 17.6 101340 80
2005-09-08 06:42:15 51°16.966 2°52.683 4.4 316 17.6 101340 80
2005-09-08 06:42:21 51°16.985 2°52.667 4.9 317 17.6 101340 80
2005-09-08 06:42:24 51°16.997 2°52.658 4.6 316 17.6 101340 80
2005-09-08 06:42:30 51°17.017 2°52.641 4.6 317 17.6 101340 80
2005-09-08 06:42:34 51°17.031 2°52.63 4.5 43 17.6 101340 80
2005-09-08 06:42:40 51°17.051 2°52.614 4 41 17.6 101340 80
2005-09-08 06:42:45 51°17.066 2°52.602 4.6 320 17.6 101340 80
2005-09-08 06:42:50 51°17.085 2°52.588 4.1 320 17.6 101340 80
2005-09-08 06:42:55 51°17.102 2°52.576 4.4 44 17.6 101340 80
2005-09-08 06:43:00 51°17.12 2°52.565 3.9 42 17.6 101340 79
2005-09-08 06:43:05 51°17.135 2°52.555 3.9 42 17.6 101340 79
2005-09-08 06:43:10 51°17.153 2°52.544 3.6 317 17.6 101340 80
2005-09-08 06:43:15 51°17.172 2°52.532 3.6 316 17.6 101340 80
2005-09-08 06:43:21 51°17.191 2°52.52 3.9 319 17.6 101340 80
2005-09-08 06:43:25 51°17.207 2°52.511 4.1 323 17.6 101340 80
2005-09-08 06:43:30 51°17.225 2°52.5 4.1 322 17.6 101340 80
2005-09-08 06:43:35 51°17.242 2°52.488 4.4 316 17.6 101340 80
2005-09-08 06:43:40 51°17.26 2°52.477 4.6 325 17.6 101350 80
2005-09-08 06:43:46 51°17.279 2°52.464 4.5 317 17.6 101350 80
2005-09-08 06:43:50 51°17.293 2°52.455 4.3 319 17.6 101340 80
2005-09-08 06:43:56 51°17.314 2°52.441 4.5 318 17.6 101340 80
2005-09-08 06:44:00 51°17.329 2°52.431 4.2 323 17.6 101340 81
2005-09-08 06:44:05 51°17.345 2°52.421 4.2 319 17.6 101340 81
2005-09-08 06:44:10 51°17.363 2°52.41 4.4 316 17.6 101340 81
2005-09-08 06:44:15 51°17.382 2°52.397 4.3 228 17.6 101340 81
2005-09-08 06:44:20 51°17.399 2°52.385 4.5 315 17.7 101340 81
2005-09-08 06:44:25 51°17.414 2°52.374 4.2 315 17.7 101340 81
2005-09-08 06:44:31 51°17.435 2°52.359 4.3 316 17.7 101340 81
2005-09-08 06:44:35 51°17.45 2°52.348 4.4 42 17.7 101340 81
2005-09-08 06:44:40 51°17.467 2°52.336 4 320 17.6 101340 80
2005-09-08 06:44:45 51°17.483 2°52.326 4.7 43 17.6 101340 80
2005-09-08 06:44:51 51°17.504 2°52.311 4.2 228 17.7 101340 80
2005-09-08 06:44:55 51°17.519 2°52.301 4.4 316 17.7 101340 80
2005-09-08 06:45:01 51°17.538 2°52.289 4 43 17.7 101340 80
2005-09-08 06:45:05 51°17.554 2°52.278 4.1 42 17.7 101340 80
2005-09-08 06:45:10 51°17.571 2°52.268 3.8 316 17.7 101340 81
2005-09-08 06:45:15 51°17.589 2°52.257 3.8 323 17.7 101340 81
2005-09-08 06:45:20 51°17.607 2°52.247 4.1 320 17.7 101340 80
2005-09-08 06:45:25 51°17.624 2°52.238 4.1 327 17.7 101340 80
2005-09-08 06:45:30 51°17.642 2°52.228 4 319 17.7 101340 80
2005-09-08 06:45:35 51°17.66 2°52.219 3.3 321 17.7 101340 80
2005-09-08 06:45:40 51°17.678 2°52.21 3.3 324 17.7 101340 80
2005-09-08 06:45:46 51°17.697 2°52.2 3.3 322 17.7 101340 80
2005-09-08 06:45:50 51°17.713 2°52.193 3.7 320 17.7 101340 81
2005-09-08 06:45:55 51°17.731 2°52.184 3.7 331 17.7 101340 81
2005-09-08 06:46:00 51°17.749 2°52.175 4 320 17.7 101340 81
2005-09-08 06:46:05 51°17.767 2°52.166 3.7 316 17.7 101340 81
2005-09-08 06:46:10 51°17.784 2°52.157 3.7 320 17.7 101340 81
2005-09-08 06:46:16 51°17.804 2°52.147 3.9 316 17.7 101340 81
2005-09-08 06:46:20 51°17.82 2°52.139 4 318 17.7 101350 81
2005-09-08 06:46:26 51°17.84 2°52.129 4 318 17.7 101350 81
2005-09-08 06:46:30 51°17.856 2°52.12 4 42 17.7 101340 81
2005-09-08 06:46:36 51°17.875 2°52.111 3.8 316 17.7 101340 81
2005-09-08 06:46:40 51°17.891 2°52.103 3.7 317 17.7 101350 81
2005-09-08 06:46:45 51°17.909 2°52.094 3.7 316 17.7 101350 81
2005-09-08 06:46:50 51°17.925 2°52.087 3.6 316 17.7 101340 81
2005-09-08 06:46:55 51°17.944 2°52.077 4 316 17.7 101340 81
2005-09-08 06:47:00 51°17.962 2°52.068 4.3 320 17.7 101350 81
2005-09-08 06:47:05 51°17.979 2°52.059 3.6 227 17.7 101350 81
2005-09-08 06:47:10 51°17.995 2°52.051 3.8 315 17.7 101340 81
2005-09-08 06:47:16 51°18.016 2°52.04 3.9 315 17.7 101340 81
2005-09-08 06:47:20 51°18.032 2°52.032 3.9 316 17.7 101340 81
2005-09-08 06:47:24 51°18.046 2°52.025 4.2 321 17.7 101340 81
2005-09-08 06:47:30 51°18.065 2°52.015 4.7 320 17.7 101340 81
2005-09-08 06:47:35 51°18.084 2°52.005 4 317 17.7 101340 81
2005-09-08 06:47:41 51°18.104 2°51.995 4.1 313 17.8 101340 81
2005-09-08 06:47:45 51°18.12 2°51.987 4.3 313 17.8 101340 81
2005-09-08 06:47:50 51°18.135 2°51.979 4 319 17.8 101350 81
2005-09-08 06:47:55 51°18.155 2°51.969 4 318 17.8 101350 81
2005-09-08 06:48:00 51°18.172 2°51.96 3.8 43 17.8 101340 81
2005-09-08 06:48:06 51°18.192 2°51.95 3.6 43 17.8 101340 81
2005-09-08 06:48:10 51°18.206 2°51.943 3.7 227 17.8 101340 81
2005-09-08 06:48:14 51°18.222 2°51.934 4.2 323 17.8 101340 81
2005-09-08 06:48:20 51°18.242 2°51.923 4.2 318 17.8 101340 81
2005-09-08 06:48:26 51°18.262 2°51.913 4.1 319 17.8 101340 81
2005-09-08 06:48:30 51°18.276 2°51.905 3.9 323 17.8 101340 81
2005-09-08 06:48:36 51°18.297 2°51.894 3.7 318 17.8 101340 81
2005-09-08 06:48:40 51°18.312 2°51.885 3.8 322 17.8 101340 81
2005-09-08 06:48:46 51°18.332 2°51.875 3.4 319 17.8 101340 81
2005-09-08 06:48:50 51°18.346 2°51.868 3.8 317 17.8 101340 81
2005-09-08 06:48:55 51°18.365 2°51.858 3.7 318 17.8 101340 81
2005-09-08 06:49:00 51°18.383 2°51.849 3.4 319 17.8 101340 81
2005-09-08 06:49:04 51°18.397 2°51.842 3.5 42 17.8 101340 81
2005-09-08 06:49:10 51°18.418 2°51.831 3.3 228 17.8 101350 81
2005-09-08 06:49:15 51°18.435 2°51.822 3.1 228 17.8 101350 81
2005-09-08 06:49:21 51°18.455 2°51.812 3.5 42 17.8 101340 81
2005-09-08 06:49:24 51°18.467 2°51.806 3.7 320 17.8 101340 81
2005-09-08 06:49:30 51°18.486 2°51.796 4 319 17.9 101340 81
2005-09-08 06:49:35 51°18.506 2°51.786 3.7 318 17.9 101340 81
2005-09-08 06:49:40 51°18.523 2°51.777 3.7 318 17.9 101350 81
2005-09-08 06:49:45 51°18.539 2°51.768 3.6 316 17.9 101350 81
2005-09-08 06:49:50 51°18.557 2°51.759 4 327 17.9 101350 81
2005-09-08 06:49:56 51°18.577 2°51.748 4 323 17.9 101350 81
2005-09-08 06:50:00 51°18.593 2°51.739 3.9 324 17.9 101340 82
2005-09-08 06:50:05 51°18.609 2°51.731 4.3 319 17.9 101340 82
2005-09-08 06:50:10 51°18.627 2°51.722 4 227 17.9 101340 82
2005-09-08 06:50:15 51°18.646 2°51.713 3.9 318 17.9 101340 82
2005-09-08 06:50:20 51°18.664 2°51.704 3.8 319 17.9 101350 82
2005-09-08 06:50:26 51°18.683 2°51.693 4.2 321 17.9 101350 82
2005-09-08 06:50:30 51°18.699 2°51.685 3.8 321 17.9 101340 82
2005-09-08 06:50:35 51°18.715 2°51.677 3.8 317 17.9 101340 82
2005-09-08 06:50:40 51°18.734 2°51.667 3.6 320 17.9 101340 82
2005-09-08 06:50:45 51°18.75 2°51.659 4.2 327 17.9 101340 82
2005-09-08 06:50:50 51°18.769 2°51.649 4 330 17.9 101350 82
2005-09-08 06:50:55 51°18.787 2°51.64 3.9 322 17.9 101350 82
2005-09-08 06:51:00 51°18.805 2°51.63 3.7 322 17.9 101350 82
2005-09-08 06:51:05 51°18.821 2°51.622 4 316 17.9 101350 82
2005-09-08 06:51:10 51°18.838 2°51.613 3.9 317 17.9 101350 82
2005-09-08 06:51:16 51°18.859 2°51.602 3.4 319 17.9 101350 82
2005-09-08 06:51:20 51°18.875 2°51.593 3.4 324 17.9 101350 82
2005-09-08 06:51:26 51°18.894 2°51.583 3.9 324 17.9 101350 82
2005-09-08 06:51:30 51°18.908 2°51.576 4.5 322 17.9 101350 82
2005-09-08 06:51:35 51°18.927 2°51.565 4.1 317 17.9 101350 82
2005-09-08 06:51:40 51°18.945 2°51.556 4 326 17.9 101350 82
2005-09-08 06:51:45 51°18.96 2°51.547 3.6 42 17.9 101350 82
2005-09-08 06:51:50 51°18.978 2°51.539 3.5 317 18 101350 82
2005-09-08 06:51:56 51°18.999 2°51.528 3.7 324 18 101350 82
2005-09-08 06:52:00 51°19.014 2°51.521 3.9 323 17.9 101340 82
2005-09-08 06:52:05 51°19.03 2°51.513 3.6 319 17.9 101340 82
2005-09-08 06:52:10 51°19.048 2°51.505 3.8 325 17.9 101340 82
2005-09-08 06:52:15 51°19.067 2°51.496 3.4 319 17.9 101340 82
2005-09-08 06:52:20 51°19.085 2°51.488 4.1 325 18 101350 82
2005-09-08 06:52:25 51°19.102 2°51.48 3.7 320 18 101350 82
2005-09-08 06:52:30 51°19.118 2°51.473 3.9 319 18 101350 82
2005-09-08 06:52:35 51°19.137 2°51.465 3.8 43 18 101350 82
2005-09-08 06:52:40 51°19.154 2°51.457 3.7 42 18 101340 83
2005-09-08 06:52:46 51°19.174 2°51.448 3.9 319 18 101340 83
2005-09-08 06:52:50 51°19.188 2°51.441 3.8 43 18 101350 83
2005-09-08 06:52:56 51°19.209 2°51.432 3.6 319 18 101350 83
2005-09-08 06:53:00 51°19.224 2°51.424 4.1 43 18 101350 83
2005-09-08 06:53:06 51°19.244 2°51.416 3.6 320 18 101350 83
2005-09-08 06:53:10 51°19.258 2°51.409 3.9 327 18 101350 83
2005-09-08 06:53:15 51°19.277 2°51.4 4 322 18 101350 83
2005-09-08 06:53:20 51°19.295 2°51.392 4.3 323 18 101350 83
2005-09-08 06:53:26 51°19.314 2°51.384 3.8 323 18 101350 83
2005-09-08 06:53:30 51°19.328 2°51.378 4.4 322 18 101340 83
2005-09-08 06:53:35 51°19.347 2°51.369 3.9 318 18 101340 83
2005-09-08 06:53:40 51°19.365 2°51.362 4.4 321 18 101340 83
2005-09-08 06:53:46 51°19.385 2°51.353 3.9 318 18 101340 83
2005-09-08 06:53:50 51°19.4 2°51.346 4.1 319 18 101350 83
2005-09-08 06:53:56 51°19.42 2°51.338 3.9 318 18 101350 83
2005-09-08 06:54:00 51°19.436 2°51.33 3.5 328 18 101350 83
2005-09-08 06:54:05 51°19.453 2°51.323 4.1 315 18 101350 83
2005-09-08 06:54:10 51°19.471 2°51.315 3.9 321 18 101350 83
2005-09-08 06:54:15 51°19.488 2°51.307 3.7 319 18 101350 83
2005-09-08 06:54:20 51°19.506 2°51.299 3.7 319 18 101350 83
2005-09-08 06:54:26 51°19.525 2°51.291 4.2 325 18 101350 83
2005-09-08 06:54:30 51°19.539 2°51.285 3.9 322 18 101350 83
2005-09-08 06:54:36 51°19.56 2°51.276 4 318 18 101350 83
2005-09-08 06:54:40 51°19.576 2°51.269 4.7 317 18.1 101340 83
2005-09-08 06:54:46 51°19.596 2°51.26 4.3 314 18.1 101340 83
2005-09-08 06:54:50 51°19.61 2°51.254 4 227 18.1 101350 83
2005-09-08 06:54:55 51°19.629 2°51.245 4.7 315 18.1 101350 83
2005-09-08 06:55:01 51°19.649 2°51.235 4.2 42 18.1 101350 83
2005-09-08 06:55:06 51°19.666 2°51.227 4.2 227 18.1 101350 83
2005-09-08 06:55:10 51°19.68 2°51.22 4 228 18.1 101340 83
2005-09-08 06:55:16 51°19.701 2°51.209 3.8 318 18.1 101340 83
2005-09-08 06:55:20 51°19.717 2°51.202 3.7 319 18.1 101350 83
2005-09-08 06:55:26 51°19.737 2°51.192 3.4 317 18.1 101350 83
2005-09-08 06:55:30 51°19.751 2°51.186 3.5 317 18.1 101350 82
2005-09-08 06:55:35 51°19.771 2°51.178 3.6 320 18.1 101350 82
2005-09-08 06:55:40 51°19.789 2°51.17 3.6 316 18.1 101350 83
2005-09-08 06:55:46 51°19.808 2°51.161 3.7 327 18.1 101350 83
2005-09-08 06:55:50 51°19.822 2°51.154 3.3 314 18.1 101340 82
2005-09-08 06:55:56 51°19.844 2°51.144 3.5 43 18.1 101340 82
2005-09-08 06:56:00 51°19.86 2°51.137 3.8 42 18.1 101340 82
2005-09-08 06:56:05 51°19.878 2°51.129 3.9 319 18.1 101340 82
2005-09-08 06:56:10 51°19.894 2°51.121 4.2 322 18.1 101350 83
2005-09-08 06:56:15 51°19.913 2°51.112 3.6 320 18.1 101350 83
2005-09-08 06:56:20 51°19.931 2°51.104 3.7 319 18.1 101350 83
2005-09-08 06:56:25 51°19.948 2°51.097 3.9 318 18.1 101350 83
2005-09-08 06:56:30 51°19.967 2°51.088 3.8 325 18.1 101350 83
2005-09-08 06:56:36 51°19.987 2°51.079 4.1 321 18.1 101350 83
2005-09-08 06:56:40 51°20.003 2°51.072 3.6 317 18.1 101350 83
2005-09-08 06:56:45 51°20.021 2°51.064 3.6 324 18.1 101350 83
2005-09-08 06:56:50 51°20.039 2°51.056 3.3 324 18.1 101340 83
2005-09-08 06:56:56 51°20.059 2°51.046 3.7 325 18.1 101340 83
2005-09-08 06:57:00 51°20.075 2°51.039 3.9 315 18.1 101340 83
2005-09-08 06:57:05 51°20.091 2°51.031 3.7 318 18.1 101340 83
2005-09-08 06:57:10 51°20.109 2°51.022 3.7 324 18.1 101350 83
2005-09-08 06:57:15 51°20.129 2°51.013 3.6 317 18.1 101350 83
2005-09-08 06:57:21 51°20.148 2°51.003 3.5 317 18.1 101340 83
2005-09-08 06:57:26 51°20.166 2°50.995 3.4 319 18.1 101340 83
2005-09-08 06:57:30 51°20.181 2°50.988 3.4 328 18.1 101340 83
2005-09-08 06:57:36 51°20.202 2°50.979 3.5 325 18.1 101340 83
2005-09-08 06:57:40 51°20.219 2°50.972 3.4 324 18.1 101350 83
2005-09-08 06:57:46 51°20.238 2°50.963 4.1 332 18.1 101350 83
2005-09-08 06:57:50 51°20.255 2°50.956 3.4 324 18.1 101340 83
2005-09-08 06:57:55 51°20.272 2°50.948 3.4 326 18.1 101340 83
2005-09-08 06:58:00 51°20.29 2°50.94 3.4 326 18.1 101340 83
2005-09-08 06:58:05 51°20.308 2°50.931 3.3 330 18.1 101340 83
2005-09-08 06:58:10 51°20.324 2°50.924 3.6 333 18.2 101340 84
2005-09-08 06:58:16 51°20.346 2°50.914 3.9 330 18.2 101340 84
2005-09-08 06:58:20 51°20.362 2°50.907 3.9 330 18.1 101340 84
2005-09-08 06:58:25 51°20.379 2°50.899 4 324 18.1 101340 84
2005-09-08 06:58:30 51°20.397 2°50.89 4.5 324 18.2 101340 84
2005-09-08 06:58:35 51°20.415 2°50.882 4.2 325 18.2 101340 84
2005-09-08 06:58:41 51°20.435 2°50.873 4.1 320 18.2 101350 84
2005-09-08 06:58:46 51°20.453 2°50.865 4.1 318 18.2 101350 84
2005-09-08 06:58:50 51°20.467 2°50.859 4.1 322 18.2 101340 84
2005-09-08 06:58:56 51°20.489 2°50.849 4.4 319 18.2 101340 84
2005-09-08 06:59:00 51°20.505 2°50.842 4 319 18.2 101340 84
2005-09-08 06:59:04 51°20.519 2°50.836 4.3 324 18.2 101340 84
2005-09-08 06:59:10 51°20.54 2°50.826 4 321 18.2 101340 84
2005-09-08 06:59:16 51°20.56 2°50.817 4.3 320 18.2 101340 84
2005-09-08 06:59:20 51°20.576 2°50.809 4.4 321 18.2 101340 84
2005-09-08 06:59:25 51°20.594 2°50.801 4.6 327 18.2 101340 84
2005-09-08 06:59:30 51°20.611 2°50.792 4.3 317 18.2 101340 84
2005-09-08 06:59:35 51°20.629 2°50.784 4.4 319 18.2 101340 84
2005-09-08 06:59:40 51°20.647 2°50.775 4 317 18.2 101340 84
2005-09-08 06:59:45 51°20.663 2°50.767 4.5 321 18.2 101340 84
2005-09-08 06:59:50 51°20.681 2°50.759 4.6 324 18.2 101340 84
2005-09-08 06:59:55 51°20.7 2°50.75 3.9 326 18.2 101340 84
2005-09-08 07:00:00 51°20.718 2°50.742 4.1 326 18.2 101340 84
2005-09-08 07:00:06 51°20.738 2°50.733 4 327 18.2 101340 84
2005-09-08 07:00:10 51°20.754 2°50.725 3.8 319 18.2 101340 84
2005-09-08 07:00:15 51°20.772 2°50.717 3.8 323 18.2 101340 84
2005-09-08 07:00:20 51°20.789 2°50.709 4.3 321 18.2 101340 84
2005-09-08 07:00:26 51°20.809 2°50.699 4.5 323 18.2 101340 84
2005-09-08 07:00:30 51°20.825 2°50.692 4.2 325 18.2 101340 84
2005-09-08 07:00:36 51°20.845 2°50.683 4.3 322 18.2 101340 84
2005-09-08 07:00:40 51°20.861 2°50.676 4 325 18.2 101340 84
2005-09-08 07:00:45 51°20.877 2°50.669 4.3 322 18.2 101340 84
2005-09-08 07:00:50 51°20.895 2°50.661 4.4 326 18.2 101340 84
2005-09-08 07:00:55 51°20.915 2°50.652 4.1 332 18.2 101340 84
2005-09-08 07:01:00 51°20.933 2°50.643 4 323 18.2 101340 84
2005-09-08 07:01:05 51°20.951 2°50.635 4.2 330 18.2 101340 84
2005-09-08 07:01:10 51°20.967 2°50.628 4.2 325 18.2 101340 84
2005-09-08 07:01:16 51°20.989 2°50.618 4 324 18.2 101340 84
2005-09-08 07:01:20 51°21.005 2°50.61 4.2 322 18.2 101350 84
2005-09-08 07:01:26 51°21.025 2°50.601 4.1 326 18.2 101350 84
2005-09-08 07:01:30 51°21.041 2°50.594 4.2 324 18.2 101350 84
2005-09-08 07:01:36 51°21.061 2°50.585 4 324 18.2 101350 84
2005-09-08 07:01:40 51°21.078 2°50.578 3.8 329 18.2 101340 84
2005-09-08 07:01:46 51°21.098 2°50.569 4.2 336 18.2 101340 84
2005-09-08 07:01:50 51°21.114 2°50.562 4.1 329 18.2 101340 84
2005-09-08 07:01:54 51°21.129 2°50.556 4.5 330 18.2 101340 84
2005-09-08 07:02:00 51°21.15 2°50.547 4.8 331 18.2 101340 84
2005-09-08 07:02:05 51°21.169 2°50.539 4.7 327 18.2 101340 84
2005-09-08 07:02:10 51°21.187 2°50.531 5.3 331 18.2 101340 84
2005-09-08 07:02:15 51°21.205 2°50.523 5.2 333 18.2 101340 84
2005-09-08 07:02:20 51°21.223 2°50.514 5.6 326 18.2 101350 84
2005-09-08 07:02:26 51°21.243 2°50.505 5.6 324 18.2 101350 84
2005-09-08 07:02:30 51°21.258 2°50.499 5.2 328 18.2 101340 84
2005-09-08 07:02:35 51°21.278 2°50.49 5 334 18.2 101340 84
2005-09-08 07:02:40 51°21.296 2°50.482 5.4 329 18.3 101340 85
2005-09-08 07:02:45 51°21.315 2°50.474 5.1 327 18.3 101340 85
2005-09-08 07:02:51 51°21.335 2°50.465 5.2 328 18.3 101340 85
2005-09-08 07:02:56 51°21.353 2°50.458 4.9 329 18.3 101340 85
2005-09-08 07:03:00 51°21.369 2°50.451 5.3 331 18.2 101350 84
2005-09-08 07:03:06 51°21.39 2°50.442 5.1 331 18.2 101350 84
2005-09-08 07:03:10 51°21.406 2°50.436 5 329 18.3 101340 84
2005-09-08 07:03:15 51°21.425 2°50.428 5.5 329 18.3 101340 84
2005-09-08 07:03:21 51°21.445 2°50.42 4.8 325 18.2 101350 84
2005-09-08 07:03:26 51°21.463 2°50.412 5.2 330 18.2 101350 84
2005-09-08 07:03:30 51°21.478 2°50.406 5.3 329 18.2 101350 84
2005-09-08 07:03:36 51°21.5 2°50.397 5.3 331 18.2 101350 84
2005-09-08 07:03:40 51°21.517 2°50.39 5.2 327 18.3 101340 84
2005-09-08 07:03:45 51°21.535 2°50.382 4.8 330 18.3 101340 84
2005-09-08 07:03:50 51°21.554 2°50.375 5.2 329 18.3 101350 84
2005-09-08 07:03:55 51°21.572 2°50.367 5.2 327 18.3 101350 84
2005-09-08 07:04:00 51°21.59 2°50.358 4.9 328 18.3 101340 84
2005-09-08 07:04:04 51°21.605 2°50.351 4.9 333 18.3 101340 84
2005-09-08 07:04:10 51°21.627 2°50.342 5.1 330 18.2 101350 84
2005-09-08 07:04:16 51°21.646 2°50.332 5.1 330 18.2 101350 84
2005-09-08 07:04:20 51°21.663 2°50.325 4.9 328 18.3 101350 84
2005-09-08 07:04:26 51°21.683 2°50.316 5.1 331 18.3 101350 84
2005-09-08 07:04:30 51°21.697 2°50.311 4.9 327 18.3 101350 84
2005-09-08 07:04:35 51°21.718 2°50.302 4.6 326 18.3 101350 84
2005-09-08 07:04:40 51°21.736 2°50.295 4.6 328 18.3 101340 84
2005-09-08 07:04:46 51°21.756 2°50.286 4.4 329 18.3 101340 84
2005-09-08 07:04:50 51°21.77 2°50.28 4.7 332 18.3 101350 84
2005-09-08 07:04:56 51°21.792 2°50.271 5.1 332 18.3 101350 84
2005-09-08 07:05:00 51°21.809 2°50.264 5 335 18.3 101350 84
2005-09-08 07:05:05 51°21.825 2°50.258 5.1 330 18.3 101350 84
2005-09-08 07:05:10 51°21.843 2°50.25 4.9 333 18.3 101340 84
2005-09-08 07:05:16 51°21.865 2°50.241 5.2 335 18.3 101340 84
2005-09-08 07:05:20 51°21.881 2°50.234 5.2 331 18.3 101350 84
2005-09-08 07:05:26 51°21.902 2°50.226 5.2 327 18.3 101350 84
2005-09-08 07:05:30 51°21.916 2°50.22 4.7 329 18.3 101340 84
2005-09-08 07:05:36 51°21.938 2°50.211 5.2 327 18.3 101340 84
2005-09-08 07:05:40 51°21.954 2°50.204 5.2 332 18.3 101340 85
2005-09-08 07:05:46 51°21.974 2°50.196 5.3 332 18.3 101340 85
2005-09-08 07:05:50 51°21.989 2°50.19 5.3 332 18.3 101340 85
2005-09-08 07:05:56 51°22.011 2°50.181 5 330 18.3 101340 85
2005-09-08 07:06:00 51°22.027 2°50.174 5.3 331 18.3 101350 85
2005-09-08 07:06:05 51°22.045 2°50.167 5.1 327 18.3 101350 85
2005-09-08 07:06:10 51°22.062 2°50.16 4.8 332 18.3 101340 84
2005-09-08 07:06:16 51°22.083 2°50.151 5 330 18.3 101340 84
2005-09-08 07:06:21 51°22.102 2°50.144 4.7 330 18.3 101340 84
2005-09-08 07:06:26 51°22.12 2°50.137 4.8 333 18.3 101340 84
2005-09-08 07:06:30 51°22.136 2°50.13 4.8 336 18.4 101340 84
2005-09-08 07:06:35 51°22.155 2°50.123 4.6 334 18.4 101340 84
2005-09-08 07:06:40 51°22.173 2°50.116 5.3 337 18.4 101340 84
2005-09-08 07:06:46 51°22.193 2°50.108 5.3 333 18.4 101340 84
2005-09-08 07:06:50 51°22.209 2°50.102 5.3 337 18.4 101340 84
2005-09-08 07:06:56 51°22.229 2°50.093 4.8 331 18.4 101340 84
2005-09-08 07:07:00 51°22.246 2°50.087 4.8 332 18.4 101340 85
2005-09-08 07:07:05 51°22.262 2°50.079 5.2 331 18.4 101340 85
2005-09-08 07:07:10 51°22.28 2°50.071 5 333 18.4 101350 85
2005-09-08 07:07:16 51°22.301 2°50.06 5.5 334 18.4 101350 85
2005-09-08 07:07:20 51°22.317 2°50.052 5.2 333 18.4 101340 85
2005-09-08 07:07:25 51°22.333 2°50.044 5.1 332 18.4 101340 85
2005-09-08 07:07:30 51°22.351 2°50.036 5.4 336 18.4 101340 85
2005-09-08 07:07:36 51°22.373 2°50.027 5.5 331 18.4 101340 85
2005-09-08 07:07:40 51°22.389 2°50.02 5.2 331 18.4 101340 85
2005-09-08 07:07:46 51°22.408 2°50.011 5.2 333 18.4 101340 85
2005-09-08 07:07:50 51°22.423 2°50.005 5.4 332 18.4 101340 85
2005-09-08 07:07:56 51°22.444 2°49.996 5.3 334 18.4 101340 85
2005-09-08 07:08:00 51°22.46 2°49.989 5.2 334 18.4 101340 85
2005-09-08 07:08:04 51°22.475 2°49.983 5.5 333 18.4 101340 85
2005-09-08 07:08:10 51°22.495 2°49.974 5.7 331 18.4 101350 85
2005-09-08 07:08:15 51°22.514 2°49.966 5.1 331 18.4 101350 85
2005-09-08 07:08:21 51°22.534 2°49.958 4.9 331 18.4 101340 86
2005-09-08 07:08:25 51°22.549 2°49.952 5.4 336 18.4 101340 86
2005-09-08 07:08:30 51°22.566 2°49.944 5.2 330 18.4 101340 86
2005-09-08 07:08:36 51°22.588 2°49.935 4.8 330 18.4 101340 86
2005-09-08 07:08:40 51°22.604 2°49.927 4.8 331 18.5 101350 86
2005-09-08 07:08:46 51°22.624 2°49.92 5.1 332 18.5 101350 86
2005-09-08 07:08:50 51°22.64 2°49.913 4.9 338 18.4 101350 86
2005-09-08 07:08:55 51°22.658 2°49.906 5 331 18.4 101350 86
2005-09-08 07:09:00 51°22.676 2°49.898 5.4 332 18.4 101340 86
2005-09-08 07:09:06 51°22.695 2°49.89 4.9 330 18.4 101340 86
2005-09-08 07:09:10 51°22.71 2°49.884 5.3 333 18.5 101350 86
2005-09-08 07:09:16 51°22.731 2°49.875 5.2 327 18.5 101350 86
2005-09-08 07:09:20 51°22.747 2°49.867 5.4 326 18.5 101340 86
2005-09-08 07:09:26 51°22.767 2°49.859 5.2 327 18.5 101340 86
2005-09-08 07:09:30 51°22.783 2°49.852 5.1 327 18.5 101340 86
2005-09-08 07:09:36 51°22.803 2°49.844 5 329 18.5 101340 86
2005-09-08 07:09:40 51°22.819 2°49.837 4.9 332 18.5 101350 86
2005-09-08 07:09:45 51°22.836 2°49.829 5.3 330 18.5 101350 86
2005-09-08 07:09:50 51°22.854 2°49.82 5.1 330 18.5 101340 86
2005-09-08 07:09:56 51°22.874 2°49.812 5.3 329 18.5 101340 86
2005-09-08 07:10:00 51°22.89 2°49.805 5.2 333 18.5 101350 86
2005-09-08 07:10:05 51°22.907 2°49.797 4.8 332 18.5 101350 86
2005-09-08 07:10:10 51°22.923 2°49.79 5.2 333 18.5 101350 86
2005-09-08 07:10:16 51°22.945 2°49.781 4.7 333 18.5 101350 86
2005-09-08 07:10:20 51°22.961 2°49.774 5.1 332 18.5 101350 86
2005-09-08 07:10:26 51°22.981 2°49.766 4.8 329 18.5 101350 86
2005-09-08 07:10:30 51°22.995 2°49.76 4.9 331 18.5 101350 86
2005-09-08 07:10:35 51°23.015 2°49.751 5.2 336 18.5 101350 86
2005-09-08 07:10:40 51°23.033 2°49.744 4.9 332 18.5 101350 86
2005-09-08 07:10:46 51°23.053 2°49.736 4.8 328 18.5 101350 86
2005-09-08 07:10:50 51°23.067 2°49.73 4.8 328 18.5 101350 86
2005-09-08 07:10:56 51°23.089 2°49.721 5.6 330 18.5 101350 86
2005-09-08 07:11:01 51°23.107 2°49.713 5.3 330 18.6 101340 86
2005-09-08 07:11:06 51°23.124 2°49.705 5.1 330 18.6 101340 86
2005-09-08 07:11:10 51°23.14 2°49.698 5.4 330 18.6 101350 86
2005-09-08 07:11:15 51°23.158 2°49.691 5.3 331 18.6 101350 86
2005-09-08 07:11:21 51°23.178 2°49.683 5.1 334 18.5 101340 86
2005-09-08 07:11:26 51°23.196 2°49.675 5.5 332 18.5 101340 86
2005-09-08 07:11:30 51°23.211 2°49.669 5.3 330 18.6 101350 86
2005-09-08 07:11:35 51°23.23 2°49.661 5.2 331 18.6 101350 86
2005-09-08 07:11:40 51°23.248 2°49.654 5.2 335 18.6 101350 87
2005-09-08 07:11:46 51°23.268 2°49.645 4.9 336 18.6 101350 87
2005-09-08 07:11:50 51°23.282 2°49.64 4.9 332 18.6 101340 87
2005-09-08 07:11:56 51°23.304 2°49.631 5.2 334 18.6 101340 87
2005-09-08 07:12:00 51°23.32 2°49.624 5.2 330 18.6 101350 87
2005-09-08 07:12:05 51°23.336 2°49.617 5.8 330 18.6 101350 87
2005-09-08 07:12:10 51°23.356 2°49.609 5.2 331 18.6 101340 87
2005-09-08 07:12:16 51°23.375 2°49.6 5.1 334 18.6 101340 87
2005-09-08 07:12:20 51°23.391 2°49.593 5.5 331 18.6 101340 87
2005-09-08 07:12:25 51°23.409 2°49.586 5.5 330 18.6 101340 87
2005-09-08 07:12:30 51°23.426 2°49.579 5 332 18.6 101350 87
2005-09-08 07:12:36 51°23.447 2°49.57 5.5 330 18.6 101350 87
2005-09-08 07:12:40 51°23.463 2°49.563 5.3 331 18.6 101340 87
2005-09-08 07:12:45 51°23.479 2°49.556 5.2 331 18.6 101340 87
2005-09-08 07:12:50 51°23.497 2°49.548 5.6 332 18.6 101350 87
2005-09-08 07:12:56 51°23.518 2°49.538 5.4 328 18.6 101350 87
2005-09-08 07:13:00 51°23.535 2°49.531 5.2 329 18.6 101350 87
2005-09-08 07:13:05 51°23.553 2°49.524 4.9 332 18.6 101350 87
2005-09-08 07:13:10 51°23.571 2°49.518 5.1 329 18.6 101340 87
2005-09-08 07:13:15 51°23.589 2°49.513 4.8 328 18.6 101340 87
2005-09-08 07:13:20 51°23.607 2°49.507 4.8 331 18.6 101340 87
2005-09-08 07:13:26 51°23.627 2°49.502 5 330 18.6 101340 87
2005-09-08 07:13:30 51°23.641 2°49.497 5 330 18.7 101340 87
2005-09-08 07:13:35 51°23.661 2°49.492 5.1 331 18.7 101340 87
2005-09-08 07:13:41 51°23.681 2°49.487 5.3 339 18.6 101350 87
2005-09-08 07:13:46 51°23.699 2°49.482 5.2 339 18.6 101350 87
2005-09-08 07:13:50 51°23.715 2°49.478 5.1 331 18.6 101350 87
2005-09-08 07:13:56 51°23.735 2°49.473 4.7 337 18.6 101350 87
2005-09-08 07:14:00 51°23.752 2°49.468 4.7 334 18.7 101350 87
2005-09-08 07:14:05 51°23.77 2°49.463 5.1 335 18.7 101350 87
2005-09-08 07:14:10 51°23.786 2°49.457 5.2 338 18.7 101350 87
2005-09-08 07:14:16 51°23.808 2°49.451 5.1 339 18.7 101350 87
2005-09-08 07:14:20 51°23.824 2°49.446 5.3 334 18.7 101350 88
2005-09-08 07:14:25 51°23.84 2°49.441 5.1 332 18.7 101350 88
2005-09-08 07:14:30 51°23.859 2°49.436 4.7 335 18.7 101350 88
2005-09-08 07:14:36 51°23.88 2°49.43 4.7 334 18.7 101350 88
2005-09-08 07:14:40 51°23.897 2°49.425 4.8 334 18.7 101350 88
2005-09-08 07:14:45 51°23.913 2°49.42 4.8 335 18.7 101350 88
2005-09-08 07:14:50 51°23.933 2°49.414 4.9 334 18.7 101350 88
2005-09-08 07:14:56 51°23.953 2°49.407 4.5 332 18.7 101350 88
2005-09-08 07:15:00 51°23.969 2°49.403 4.5 332 18.7 101350 88
2005-09-08 07:15:06 51°23.989 2°49.397 5 334 18.7 101350 88
2005-09-08 07:15:10 51°24.004 2°49.393 5.3 335 18.7 101350 88
2005-09-08 07:15:15 51°24.024 2°49.387 5.3 337 18.7 101350 88
2005-09-08 07:15:20 51°24.042 2°49.382 5.5 334 18.7 101350 88
2005-09-08 07:15:25 51°24.06 2°49.377 5.2 335 18.7 101350 88
2005-09-08 07:15:30 51°24.078 2°49.372 5.1 337 18.7 101350 88
2005-09-08 07:15:35 51°24.096 2°49.368 5.3 338 18.7 101350 88
2005-09-08 07:15:40 51°24.114 2°49.363 5.6 343 18.7 101350 88
2005-09-08 07:15:46 51°24.134 2°49.358 6.7 324 18.7 101350 88
2005-09-08 07:15:50 51°24.149 2°49.354 6.7 324 18.7 101350 88
2005-09-08 07:15:56 51°24.171 2°49.348 7.1 326 18.7 101350 88
2005-09-08 07:16:00 51°24.187 2°49.343 6.6 320 18.7 101350 88
2005-09-08 07:16:06 51°24.207 2°49.338 6.8 321 18.7 101350 88
2005-09-08 07:16:10 51°24.223 2°49.334 6.7 318 18.7 101350 88
2005-09-08 07:16:16 51°24.243 2°49.329 7.1 325 18.7 101350 88
2005-09-08 07:16:20 51°24.259 2°49.326 6.2 322 18.7 101340 87
2005-09-08 07:16:25 51°24.278 2°49.321 6.7 321 18.7 101340 87
2005-09-08 07:16:30 51°24.294 2°49.317 7.2 322 18.7 101340 87
2005-09-08 07:16:36 51°24.316 2°49.312 6.5 321 18.7 101340 87
2005-09-08 07:16:40 51°24.332 2°49.308 6.2 318 18.7 101340 86
2005-09-08 07:16:44 51°24.347 2°49.305 6.5 328 18.7 101340 86
2005-09-08 07:16:50 51°24.367 2°49.3 6.8 321 18.8 101340 86
2005-09-08 07:16:56 51°24.389 2°49.295 7 324 18.8 101340 86
2005-09-08 07:17:00 51°24.405 2°49.291 6.9 321 18.8 101350 86
2005-09-08 07:17:05 51°24.424 2°49.287 6.5 322 18.8 101350 86
2005-09-08 07:17:10 51°24.44 2°49.282 6.7 319 18.8 101350 86
2005-09-08 07:17:16 51°24.462 2°49.277 6.8 318 18.8 101350 86
2005-09-08 07:17:20 51°24.478 2°49.273 6.2 318 18.8 101350 85
2005-09-08 07:17:25 51°24.497 2°49.269 6.3 325 18.8 101350 85
2005-09-08 07:17:30 51°24.513 2°49.265 5.8 324 18.8 101350 85
2005-09-08 07:17:35 51°24.533 2°49.26 6.2 328 18.8 101350 85
2005-09-08 07:17:40 51°24.551 2°49.255 6.9 321 18.8 101350 85
2005-09-08 07:17:46 51°24.571 2°49.25 6.6 321 18.8 101350 85
2005-09-08 07:17:50 51°24.586 2°49.245 7.3 322 18.9 101350 85
2005-09-08 07:17:55 51°24.605 2°49.237 6.2 329 18.9 101350 85
2005-09-08 07:18:00 51°24.623 2°49.229 6.1 323 18.9 101350 85
2005-09-08 07:18:05 51°24.639 2°49.221 6.9 332 18.9 101350 85
2005-09-08 07:18:09 51°24.655 2°49.214 6.9 329 18.9 101350 84
2005-09-08 07:18:15 51°24.677 2°49.203 7 330 18.9 101350 84
2005-09-08 07:18:20 51°24.694 2°49.194 7.1 328 18.9 101350 85
2005-09-08 07:18:26 51°24.714 2°49.184 7.1 329 18.9 101350 85
2005-09-08 07:18:30 51°24.728 2°49.177 7.2 327 18.9 101350 85
2005-09-08 07:18:36 51°24.75 2°49.166 6.8 331 18.9 101350 85
2005-09-08 07:18:40 51°24.766 2°49.158 7 324 19 101350 85
2005-09-08 07:18:44 51°24.78 2°49.15 7.2 333 19 101350 85
2005-09-08 07:18:50 51°24.8 2°49.14 7.5 328 19 101340 84
2005-09-08 07:18:56 51°24.821 2°49.128 7.6 327 19 101340 84
2005-09-08 07:19:00 51°24.837 2°49.118 7.5 327 19 101350 84
2005-09-08 07:19:05 51°24.852 2°49.109 7 325 19 101350 84
2005-09-08 07:19:10 51°24.872 2°49.097 7.2 328 19 101350 84
2005-09-08 07:19:15 51°24.889 2°49.087 7.1 328 19 101350 84
2005-09-08 07:19:20 51°24.907 2°49.076 7.6 330 19 101350 84
2005-09-08 07:19:24 51°24.921 2°49.067 6.9 328 19 101350 84
2005-09-08 07:19:30 51°24.942 2°49.054 6.5 328 19 101340 84
2005-09-08 07:19:36 51°24.961 2°49.043 7 331 19 101340 84
2005-09-08 07:19:40 51°24.977 2°49.033 6.8 330 19 101340 83
2005-09-08 07:19:46 51°24.997 2°49.022 7.3 327 19 101340 83
2005-09-08 07:19:50 51°25.013 2°49.012 6.7 331 19 101340 84
2005-09-08 07:19:56 51°25.032 2°49.001 7.1 330 19 101340 84
2005-09-08 07:20:00 51°25.048 2°48.991 6.8 328 19 101350 84
2005-09-08 07:20:06 51°25.067 2°48.98 6.9 328 19 101350 84
2005-09-08 07:20:10 51°25.082 2°48.971 7.4 326 19 101340 83
2005-09-08 07:20:16 51°25.103 2°48.959 7.7 325 19 101340 83
2005-09-08 07:20:21 51°25.121 2°48.948 7.7 321 19 101350 83
2005-09-08 07:20:25 51°25.136 2°48.941 7.2 326 19 101350 83
2005-09-08 07:20:30 51°25.153 2°48.93 6.9 327 19 101340 83
2005-09-08 07:20:35 51°25.173 2°48.92 6.9 328 19 101340 83
2005-09-08 07:20:40 51°25.191 2°48.909 7.4 327 19 101340 83
2005-09-08 07:20:46 51°25.21 2°48.898 7.1 330 19 101340 83
2005-09-08 07:20:50 51°25.226 2°48.888 7.7 331 19.1 101340 83
2005-09-08 07:20:56 51°25.246 2°48.877 7.8 329 19.1 101340 83
2005-09-08 07:21:00 51°25.262 2°48.867 7.4 323 19 101350 83
2005-09-08 07:21:05 51°25.278 2°48.857 7.8 324 19 101350 83
2005-09-08 07:21:10 51°25.295 2°48.846 8.2 320 19 101340 83
2005-09-08 07:21:16 51°25.316 2°48.833 7.5 323 19 101340 83
2005-09-08 07:21:20 51°25.331 2°48.822 6.9 326 19 101340 83
2005-09-08 07:21:24 51°25.345 2°48.813 7.1 323 19 101340 83
2005-09-08 07:21:30 51°25.366 2°48.8 6.9 327 19 101340 83
2005-09-08 07:21:36 51°25.385 2°48.789 7.1 325 19 101340 83
2005-09-08 07:21:40 51°25.401 2°48.779 7.2 329 19 101340 83
2005-09-08 07:21:46 51°25.42 2°48.767 7.5 327 19 101340 83
2005-09-08 07:21:50 51°25.434 2°48.759 7.4 325 19 101350 83
2005-09-08 07:21:56 51°25.455 2°48.746 6.9 324 19 101350 83
2005-09-08 07:22:00 51°25.47 2°48.735 7.4 324 19.1 101350 83
2005-09-08 07:22:05 51°25.486 2°48.725 7.2 330 19.1 101350 83
2005-09-08 07:22:10 51°25.503 2°48.714 7.3 327 19.1 101340 83
2005-09-08 07:22:15 51°25.522 2°48.701 7.5 333 19.1 101340 83
2005-09-08 07:22:20 51°25.539 2°48.688 7.3 327 19.1 101340 83
2005-09-08 07:22:26 51°25.558 2°48.675 7.3 324 19.1 101340 83
2005-09-08 07:22:30 51°25.572 2°48.665 7.2 328 19.1 101350 83
2005-09-08 07:22:35 51°25.59 2°48.651 7.3 330 19.1 101350 83
2005-09-08 07:22:40 51°25.608 2°48.64 7.1 328 19.1 101350 83
2005-09-08 07:22:46 51°25.627 2°48.627 7.4 327 19.1 101350 83
2005-09-08 07:22:50 51°25.642 2°48.617 7.9 324 19.1 101340 83
2005-09-08 07:22:55 51°25.66 2°48.606 6.7 326 19.1 101340 83
2005-09-08 07:23:00 51°25.677 2°48.595 7 329 19.1 101340 84
2005-09-08 07:23:05 51°25.692 2°48.585 6.6 322 19.1 101340 84
2005-09-08 07:23:10 51°25.708 2°48.574 6.5 325 19.1 101340 83
2005-09-08 07:23:16 51°25.726 2°48.561 6.3 321 19.1 101340 83
2005-09-08 07:23:20 51°25.738 2°48.553 5.7 319 19 101340 83
2005-09-08 07:23:24 51°25.749 2°48.546 5.9 43 19 101340 83
2005-09-08 07:23:30 51°25.763 2°48.536 6 43 19.1 101340 83
2005-09-08 07:23:35 51°25.777 2°48.528 5.6 313 19.1 101340 83
2005-09-08 07:23:40 51°25.789 2°48.521 5.8 309 19.1 101340 84
2005-09-08 07:23:45 51°25.801 2°48.515 4.9 312 19.1 101340 84
2005-09-08 07:23:50 51°25.813 2°48.509 5.1 309 19.1 101350 84
2005-09-08 07:23:56 51°25.826 2°48.503 4.8 307 19.1 101350 84
2005-09-08 07:24:00 51°25.836 2°48.499 5.1 306 19.1 101350 84
2005-09-08 07:24:05 51°25.848 2°48.495 4.9 302 19.1 101350 84
2005-09-08 07:24:10 51°25.859 2°48.491 5 302 19.1 101350 84
2005-09-08 07:24:15 51°25.869 2°48.486 5.3 304 19.1 101350 84
2005-09-08 07:24:21 51°25.881 2°48.48 4.8 306 19 101350 84
2005-09-08 07:24:25 51°25.89 2°48.475 4.3 306 19 101350 84
2005-09-08 07:24:30 51°25.9 2°48.469 5.1 303 19.1 101350 84
2005-09-08 07:24:35 51°25.911 2°48.462 4.6 309 19.1 101350 84
2005-09-08 07:24:40 51°25.922 2°48.455 4.7 305 19.1 101360 84
2005-09-08 07:24:45 51°25.932 2°48.449 4.6 303 19.1 101360 84
2005-09-08 07:24:50 51°25.941 2°48.443 5 302 19.1 101350 84
2005-09-08 07:24:55 51°25.952 2°48.436 4.6 304 19.1 101350 84
2005-09-08 07:25:01 51°25.963 2°48.43 4.6 302 19.1 101350 84
2005-09-08 07:25:05 51°25.97 2°48.426 3.9 294 19.1 101350 84
2005-09-08 07:25:09 51°25.978 2°48.422 3.8 291 19.1 101350 84
2005-09-08 07:25:16 51°25.988 2°48.418 3.6 290 19.1 101350 84
2005-09-08 07:25:20 51°25.995 2°48.415 4.2 279 19.1 101350 84
2005-09-08 07:25:25 51°26.001 2°48.413 3.3 263 19.1 101350 84
2005-09-08 07:25:30 51°26.007 2°48.411 2.5 254 19.1 101350 84
2005-09-08 07:25:36 51°26.013 2°48.41 3 247 19.1 101350 84
2005-09-08 07:25:40 51°26.017 2°48.41 2.8 239 19.1 101350 84
2005-09-08 07:25:45 51°26.02 2°48.409 2.8 227 19.1 101350 84
2005-09-08 07:25:50 51°26.022 2°48.409 2.6 223 19.1 101350 84
2005-09-08 07:25:56 51°26.024 2°48.409 3.4 209 19.1 101350 84
2005-09-08 07:26:00 51°26.025 2°48.407 3.6 207 19.1 101360 84
2005-09-08 07:26:04 51°26.025 2°48.405 3.8 199 19.1 101360 84
2005-09-08 07:26:10 51°26.025 2°48.403 2.3 193 19.1 101360 84
2005-09-08 07:26:15 51°26.025 2°48.4 2.9 192 19.1 101360 84
2005-09-08 07:26:20 51°26.025 2°48.397 2.5 191 19.1 101360 84
2005-09-08 07:26:26 51°26.025 2°48.395 2.4 196 19.1 101360 84
2005-09-08 07:26:30 51°26.025 2°48.393 1.9 197 19.1 101360 84
2005-09-08 07:26:36 51°26.024 2°48.39 2.6 167 19.1 101360 84
2005-09-08 07:26:40 51°26.024 2°48.388 2.4 173 19.2 101360 85
2005-09-08 07:26:46 51°26.024 2°48.385 3 183 19.2 101360 85
2005-09-08 07:26:50 51°26.025 2°48.383 3.1 182 19.2 101360 85
2005-09-08 07:26:56 51°26.025 2°48.381 3.1 185 19.2 101360 85
2005-09-08 07:27:00 51°26.025 2°48.379 3.5 180 19.3 101350 85
2005-09-08 07:27:06 51°26.025 2°48.376 3 182 19.3 101350 85
2005-09-08 07:27:10 51°26.025 2°48.374 2.8 186 19.4 101360 84
2005-09-08 07:27:16 51°26.025 2°48.371 2.7 184 19.4 101360 84
2005-09-08 07:27:21 51°26.025 2°48.369 2.9 186 19.4 101360 83
2005-09-08 07:27:26 51°26.025 2°48.367 3 181 19.4 101360 83
2005-09-08 07:27:31 51°26.025 2°48.365 2.9 189 19.5 101360 83
2005-09-08 07:27:36 51°26.025 2°48.363 2.8 188 19.5 101360 83
2005-09-08 07:27:40 51°26.025 2°48.361 2.2 187 19.5 101360 83
2005-09-08 07:27:45 51°26.025 2°48.359 2.3 185 19.5 101360 83
2005-09-08 07:27:50 51°26.025 2°48.357 2.6 193 19.6 101360 82
2005-09-08 07:27:56 51°26.026 2°48.355 2.8 185 19.6 101360 82
2005-09-08 07:28:00 51°26.026 2°48.354 2.4 198 19.6 101360 82
2005-09-08 07:28:06 51°26.026 2°48.352 3 183 19.6 101360 82
2005-09-08 07:28:10 51°26.026 2°48.351 2.6 194 19.7 101360 82
2005-09-08 07:28:16 51°26.026 2°48.348 2.8 198 19.7 101360 82
2005-09-08 07:28:20 51°26.026 2°48.347 3.4 197 19.8 101360 81
2005-09-08 07:28:26 51°26.027 2°48.345 2.8 193 19.8 101360 81
2005-09-08 07:28:30 51°26.027 2°48.344 3.5 193 19.8 101360 80
2005-09-08 07:28:36 51°26.027 2°48.342 2.4 197 19.8 101360 80
2005-09-08 07:28:40 51°26.027 2°48.341 2.6 182 19.9 101360 80
2005-09-08 07:28:46 51°26.027 2°48.339 2.9 196 19.9 101360 80
2005-09-08 07:28:50 51°26.027 2°48.338 2.4 199 19.8 101360 79
2005-09-08 07:28:56 51°26.027 2°48.336 2.4 189 19.8 101360 79
2005-09-08 07:29:01 51°26.028 2°48.335 2.8 186 19.8 101360 80
2005-09-08 07:29:05 51°26.028 2°48.333 2.1 187 19.8 101360 80
2005-09-08 07:29:10 51°26.028 2°48.332 2.1 183 19.9 101360 80
2005-09-08 07:29:15 51°26.028 2°48.33 3.1 195 19.9 101360 80
2005-09-08 07:29:20 51°26.028 2°48.329 2.1 202 19.9 101360 80
2005-09-08 07:29:26 51°26.028 2°48.327 1.9 192 19.9 101360 80
2005-09-08 07:29:30 51°26.028 2°48.326 2.4 215 19.9 101360 80
2005-09-08 07:29:36 51°26.029 2°48.324 2.5 191 19.9 101360 80
2005-09-08 07:29:40 51°26.029 2°48.323 2.6 194 19.9 101360 80
2005-09-08 07:29:46 51°26.029 2°48.322 2.4 183 19.9 101360 80
2005-09-08 07:29:50 51°26.029 2°48.321 2.1 191 19.9 101360 80
2005-09-08 07:29:56 51°26.029 2°48.319 2.2 191 19.9 101360 80
2005-09-08 07:30:00 51°26.029 2°48.318 1.7 191 19.9 101360 80
2005-09-08 07:30:05 51°26.03 2°48.317 1.6 188 19.9 101360 80
2005-09-08 07:30:10 51°26.03 2°48.315 2.4 183 19.9 101360 80
2005-09-08 07:30:16 51°26.03 2°48.314 2.3 190 19.9 101360 80
2005-09-08 07:30:20 51°26.03 2°48.313 3.3 195 20 101360 79
2005-09-08 07:30:24 51°26.031 2°48.312 2 190 20 101360 79
2005-09-08 07:30:30 51°26.031 2°48.311 2.1 195 20 101360 79
2005-09-08 07:30:35 51°26.031 2°48.309 2.2 188 20 101360 79
2005-09-08 07:30:40 51°26.031 2°48.308 2.6 205 20 101360 80
2005-09-08 07:30:44 51°26.031 2°48.307 2.3 186 20 101360 80
2005-09-08 07:30:50 51°26.032 2°48.306 2.4 187 20 101360 79
2005-09-08 07:30:56 51°26.032 2°48.305 2.3 206 20 101360 79
2005-09-08 07:31:00 51°26.032 2°48.304 1.6 207 20.1 101360 79
2005-09-08 07:31:05 51°26.033 2°48.303 2.1 190 20.1 101360 79
2005-09-08 07:31:10 51°26.033 2°48.302 1.9 179 20.1 101360 79
2005-09-08 07:31:16 51°26.034 2°48.301 2.2 185 20.1 101360 79
2005-09-08 07:31:20 51°26.034 2°48.301 2.4 187 20.1 101350 79
2005-09-08 07:31:24 51°26.035 2°48.301 1.9 192 20.1 101350 79
2005-09-08 07:31:30 51°26.037 2°48.301 1.6 183 20.1 101360 79
2005-09-08 07:31:35 51°26.039 2°48.303 1.8 190 20.1 101360 79
2005-09-08 07:31:40 51°26.041 2°48.305 2.4 175 20.2 101360 79
2005-09-08 07:31:46 51°26.043 2°48.307 2 159 20.2 101360 79
2005-09-08 07:31:51 51°26.046 2°48.311 2.6 169 20.2 101360 79
2005-09-08 07:31:56 51°26.048 2°48.314 3.6 161 20.2 101360 79
2005-09-08 07:32:00 51°26.05 2°48.318 2.9 157 20.2 101360 79
2005-09-08 07:32:06 51°26.052 2°48.324 2.7 134 20.2 101360 79
2005-09-08 07:32:10 51°26.054 2°48.328 3.1 131 20.2 101360 78
2005-09-08 07:32:16 51°26.055 2°48.335 3.5 126 20.2 101360 78
2005-09-08 07:32:20 51°26.055 2°48.341 3.8 124 20.2 101360 77
2005-09-08 07:32:26 51°26.055 2°48.348 4.2 118 20.2 101360 77
2005-09-08 07:32:30 51°26.055 2°48.353 3.6 116 20.1 101360 78
2005-09-08 07:32:36 51°26.054 2°48.36 3.9 109 20.1 101360 78
2005-09-08 07:32:40 51°26.052 2°48.366 4.1 101 20.1 101360 77
2005-09-08 07:32:45 51°26.05 2°48.371 4.9 97 20.1 101360 77
2005-09-08 07:32:50 51°26.048 2°48.377 4.8 91 20.1 101360 78
2005-09-08 07:32:55 51°26.044 2°48.382 5.7 87 20.1 101360 78
2005-09-08 07:33:00 51°26.041 2°48.387 4.9 80 20 101350 78
2005-09-08 07:33:06 51°26.036 2°48.393 3.8 78 20 101350 78
2005-09-08 07:33:10 51°26.033 2°48.396 3.7 73 19.9 101360 78
2005-09-08 07:33:16 51°26.027 2°48.401 4.9 67 19.9 101360 78
2005-09-08 07:33:20 51°26.023 2°48.405 4.5 70 19.9 101350 78
2005-09-08 07:33:24 51°26.019 2°48.409 5.1 64 19.9 101350 78
2005-09-08 07:33:30 51°26.013 2°48.414 5.1 71 19.8 101360 79
2005-09-08 07:33:35 51°26.008 2°48.419 4.9 73 19.8 101360 79
2005-09-08 07:33:40 51°26.002 2°48.425 5 73 19.8 101350 79
2005-09-08 07:33:46 51°25.997 2°48.431 4.6 80 19.8 101350 79
2005-09-08 07:33:50 51°25.993 2°48.436 4.8 80 19.7 101350 80
2005-09-08 07:33:55 51°25.989 2°48.442 4.9 89 19.7 101350 80
2005-09-08 07:34:01 51°25.985 2°48.449 4.5 95 19.6 101350 80
2005-09-08 07:34:06 51°25.983 2°48.454 4.3 100 19.6 101350 80
2005-09-08 07:34:10 51°25.981 2°48.458 4.2 104 19.6 101350 80
2005-09-08 07:34:15 51°25.979 2°48.462 4.1 113 19.6 101350 80
2005-09-08 07:34:20 51°25.978 2°48.465 4 119 19.5 101350 80
2005-09-08 07:34:26 51°25.977 2°48.468 3.9 131 19.5 101350 80
2005-09-08 07:34:30 51°25.977 2°48.469 3.6 134 19.5 101360 80
2005-09-08 07:34:35 51°25.976 2°48.47 4.4 129 19.5 101360 80
2005-09-08 07:34:41 51°25.976 2°48.472 4.4 132 19.4 101360 81
2005-09-08 07:34:46 51°25.976 2°48.473 4.1 135 19.4 101360 81
2005-09-08 07:34:50 51°25.976 2°48.474 4.2 142 19.4 101360 81
2005-09-08 07:34:56 51°25.976 2°48.476 3.8 144 19.4 101360 81
2005-09-08 07:35:00 51°25.976 2°48.477 3.7 150 19.4 101360 81
2005-09-08 07:35:05 51°25.976 2°48.478 3.5 147 19.4 101360 81
2005-09-08 07:35:10 51°25.977 2°48.48 3.7 151 19.3 101360 81
2005-09-08 07:35:16 51°25.977 2°48.482 3.8 155 19.3 101360 81
2005-09-08 07:35:20 51°25.977 2°48.483 3.5 155 19.3 101360 81
2005-09-08 07:35:26 51°25.978 2°48.484 3.6 159 19.3 101360 81
2005-09-08 07:35:31 51°25.978 2°48.485 3.8 157 19.3 101360 82
2005-09-08 07:35:36 51°25.978 2°48.486 4 156 19.3 101360 82
2005-09-08 07:35:40 51°25.979 2°48.487 3.5 159 19.3 101360 82
2005-09-08 07:35:45 51°25.979 2°48.489 3.6 159 19.3 101360 82
2005-09-08 07:35:49 51°25.98 2°48.489 3.6 157 19.3 101360 82
2005-09-08 07:35:56 51°25.98 2°48.491 3.3 156 19.3 101360 82
2005-09-08 07:36:01 51°25.981 2°48.492 3.5 155 19.2 101360 82
2005-09-08 07:36:06 51°25.982 2°48.492 3.1 153 19.2 101360 82
2005-09-08 07:36:10 51°25.982 2°48.493 3.2 153 19.2 101360 82
2005-09-08 07:36:16 51°25.983 2°48.494 3.3 151 19.2 101360 82
2005-09-08 07:36:20 51°25.983 2°48.495 3.7 157 19.2 101360 83
2005-09-08 07:36:26 51°25.983 2°48.496 4.3 156 19.2 101360 83
2005-09-08 07:36:30 51°25.984 2°48.496 4.4 156 19.2 101370 83
2005-09-08 07:36:35 51°25.985 2°48.497 4.1 155 19.2 101370 83
2005-09-08 07:36:40 51°25.985 2°48.498 3.8 160 19.2 101370 84
2005-09-08 07:36:46 51°25.986 2°48.498 4.3 158 19.2 101370 84
2005-09-08 07:36:50 51°25.986 2°48.498 4 159 19.2 101370 83
2005-09-08 07:36:55 51°25.987 2°48.499 3.9 162 19.2 101370 83
2005-09-08 07:37:00 51°25.987 2°48.5 4.3 160 19.1 101360 83
2005-09-08 07:37:06 51°25.988 2°48.5 3.9 162 19.1 101360 83
2005-09-08 07:37:10 51°25.989 2°48.501 3.7 162 19.1 101360 83
2005-09-08 07:37:15 51°25.989 2°48.501 4 162 19.1 101360 83
2005-09-08 07:37:20 51°25.989 2°48.501 4 165 19.1 101370 83
2005-09-08 07:37:25 51°25.99 2°48.502 3.8 165 19.1 101370 83
2005-09-08 07:37:30 51°25.991 2°48.502 3.7 165 19.1 101370 83
2005-09-08 07:37:36 51°25.991 2°48.502 3.7 167 19.1 101370 83
2005-09-08 07:37:40 51°25.992 2°48.503 3.9 161 19.1 101370 83
2005-09-08 07:37:45 51°25.992 2°48.503 4.3 161 19.1 101370 83
2005-09-08 07:37:50 51°25.993 2°48.503 4.4 164 19.1 101370 84
2005-09-08 07:37:55 51°25.994 2°48.504 4.4 165 19.1 101370 84
2005-09-08 07:38:01 51°25.994 2°48.504 4.1 168 19.1 101370 84
2005-09-08 07:38:05 51°25.995 2°48.504 3.8 165 19.1 101370 84
2005-09-08 07:38:10 51°25.995 2°48.504 4.3 164 19 101370 84